createdAt,value
2018-10-19T00:00:31.778Z,96.23
2018-10-19T00:01:31.678Z,95.98
2018-10-19T00:02:31.676Z,95.83
2018-10-19T00:03:31.650Z,95.98
2018-10-19T00:04:31.646Z,96.44
2018-10-19T00:05:31.625Z,96.75
2018-10-19T00:06:31.726Z,96.75
2018-10-19T00:07:31.605Z,96.65
2018-10-19T00:08:31.634Z,96.44
2018-10-19T00:09:31.588Z,96.65
2018-10-19T00:10:31.572Z,96.65
2018-10-19T00:11:31.568Z,97.06
2018-10-19T00:12:31.602Z,96.75
2018-10-19T00:13:31.542Z,97.20
2018-10-19T00:14:31.542Z,96.90
2018-10-19T00:15:31.530Z,97.20
2018-10-19T00:16:31.510Z,97.00
2018-10-19T00:17:31.496Z,97.10
2018-10-19T00:18:31.544Z,97.00
2018-10-19T00:19:31.475Z,97.10
2018-10-19T00:20:31.463Z,97.31
2018-10-19T00:21:31.467Z,97.62
2018-10-19T00:22:31.441Z,97.41
2018-10-19T00:23:31.430Z,97.62
2018-10-19T00:24:31.459Z,98.03
2018-10-19T00:25:31.407Z,98.03
2018-10-19T00:26:31.398Z,97.72
2018-10-19T00:27:31.410Z,97.92
2018-10-19T00:28:31.386Z,97.62
2018-10-19T00:29:31.365Z,97.62
2018-10-19T00:30:31.390Z,97.41
2018-10-19T00:31:31.340Z,97.82
2018-10-19T00:32:31.339Z,97.41
2018-10-19T00:33:31.340Z,97.52
2018-10-19T00:34:31.309Z,97.82
2018-10-19T00:35:31.298Z,97.92
2018-10-19T00:36:31.368Z,97.62
2018-10-19T00:37:31.278Z,97.52
2018-10-19T00:38:31.268Z,97.52
2018-10-19T00:39:31.274Z,97.62
2018-10-19T00:40:31.245Z,97.45
2018-10-19T00:41:31.284Z,97.25
2018-10-19T00:42:31.269Z,97.15
2018-10-19T00:43:31.212Z,97.36
2018-10-19T00:44:31.200Z,97.15
2018-10-19T00:45:31.219Z,97.56
2018-10-19T00:46:31.184Z,97.45
2018-10-19T00:47:31.167Z,97.66
2018-10-19T00:48:31.227Z,97.45
2018-10-19T00:49:31.163Z,97.77
2018-10-19T00:50:31.147Z,97.45
2018-10-19T00:51:31.192Z,97.66
2018-10-19T00:52:31.119Z,97.56
2018-10-19T00:53:31.105Z,97.56
2018-10-19T00:54:31.142Z,97.56
2018-10-19T00:55:31.083Z,97.45
2018-10-19T00:56:31.074Z,97.25
2018-10-19T00:57:31.116Z,97.25
2018-10-19T00:58:31.052Z,97.66
2018-10-19T00:59:31.045Z,97.15
2018-10-19T01:00:31.078Z,97.05
2018-10-19T01:01:31.021Z,97.05
2018-10-19T01:02:31.006Z,97.25
2018-10-19T01:03:31.013Z,97.15
2018-10-19T01:04:30.991Z,96.64
2018-10-19T01:05:30.975Z,96.47
2018-10-19T01:06:31.008Z,96.78
2018-10-19T01:07:30.957Z,96.58
2018-10-19T01:08:30.938Z,97.36
2018-10-19T01:09:30.936Z,97.25
2018-10-19T01:10:30.927Z,97.15
2018-10-19T01:11:30.907Z,97.05
2018-10-19T01:12:30.943Z,97.25
2018-10-19T01:13:30.889Z,97.36
2018-10-19T01:14:30.872Z,97.56
2018-10-19T01:15:30.866Z,97.66
2018-10-19T01:16:30.855Z,97.56
2018-10-19T01:17:30.850Z,97.36
2018-10-19T01:18:30.880Z,97.66
2018-10-19T01:19:30.825Z,97.25
2018-10-19T01:20:30.813Z,97.15
2018-10-19T01:21:30.799Z,97.20
2018-10-19T01:22:30.789Z,97.45
2018-10-19T01:23:30.787Z,97.56
2018-10-19T01:24:30.818Z,97.82
2018-10-19T01:25:30.762Z,98.24
2018-10-19T01:26:30.745Z,98.24
2018-10-19T01:27:30.735Z,97.72
2018-10-19T01:28:30.729Z,97.67
2018-10-19T01:29:30.710Z,97.72
2018-10-19T01:30:30.735Z,97.82
2018-10-19T01:31:30.688Z,97.82
2018-10-19T01:32:30.678Z,97.92
2018-10-19T01:33:30.668Z,98.39
2018-10-19T01:34:30.672Z,98.60
2018-10-19T01:35:30.649Z,98.80
2018-10-19T01:36:30.674Z,98.76
2018-10-19T01:37:30.625Z,98.96
2018-10-19T01:38:30.614Z,98.86
2018-10-19T01:39:30.606Z,98.91
2018-10-19T01:40:30.590Z,98.96
2018-10-19T01:41:30.611Z,99.48
2018-10-19T01:42:30.619Z,99.27
2018-10-19T01:43:30.558Z,99.17
2018-10-19T01:44:30.547Z,99.38
2018-10-19T01:45:30.535Z,99.33
2018-10-19T01:46:30.526Z,99.22
2018-10-19T01:47:30.542Z,99.12
2018-10-19T01:48:30.563Z,99.33
2018-10-19T01:49:30.539Z,99.84
2018-10-19T01:50:30.482Z,99.74
2018-10-19T01:51:30.473Z,99.74
2018-10-19T01:52:30.458Z,99.43
2018-10-19T01:53:30.454Z,99.54
2018-10-19T01:54:30.487Z,99.33
2018-10-19T01:55:30.423Z,99.12
2018-10-19T01:56:30.417Z,99.38
2018-10-19T01:57:30.405Z,99.49
2018-10-19T01:58:30.394Z,99.08
2018-10-19T01:59:30.387Z,99.18
2018-10-19T02:00:30.437Z,99.18
2018-10-19T02:01:30.373Z,98.87
2018-10-19T02:02:30.348Z,98.97
2018-10-19T02:03:30.338Z,98.97
2018-10-19T02:04:30.327Z,98.72
2018-10-19T02:05:30.317Z,98.62
2018-10-19T02:06:30.356Z,98.83
2018-10-19T02:07:30.297Z,98.52
2018-10-19T02:08:30.283Z,98.62
2018-10-19T02:09:30.273Z,99.03
2018-10-19T02:10:30.264Z,98.72
2018-10-19T02:11:30.252Z,98.72
2018-10-19T02:12:30.322Z,98.62
2018-10-19T02:13:30.229Z,98.72
2018-10-19T02:14:30.218Z,98.93
2018-10-19T02:15:30.207Z,99.03
2018-10-19T02:16:30.196Z,99.24
2018-10-19T02:17:30.187Z,98.93
2018-10-19T02:18:30.220Z,99.19
2018-10-19T02:19:30.165Z,98.62
2018-10-19T02:20:30.150Z,98.72
2018-10-19T02:21:30.140Z,98.88
2018-10-19T02:22:30.132Z,98.58
2018-10-19T02:23:30.128Z,98.78
2018-10-19T02:24:30.144Z,98.88
2018-10-19T02:25:30.114Z,99.19
2018-10-19T02:26:30.089Z,98.88
2018-10-19T02:27:30.074Z,98.78
2018-10-19T02:28:30.065Z,98.78
2018-10-19T02:29:30.057Z,98.99
2018-10-19T02:30:30.093Z,99.19
2018-10-19T02:31:30.046Z,98.94
2018-10-19T02:32:30.039Z,98.94
2018-10-19T02:33:30.017Z,99.25
2018-10-19T02:34:29.997Z,99.25
2018-10-19T02:35:29.987Z,98.94
2018-10-19T02:36:30.025Z,99.15
2018-10-19T02:37:29.966Z,98.83
2018-10-19T02:38:29.970Z,99.45
2018-10-19T02:39:29.944Z,99.96
2018-10-19T02:40:29.934Z,99.55
2018-10-19T02:41:29.922Z,99.96
2018-10-19T02:42:30.038Z,99.66
2018-10-19T02:43:29.897Z,99.99
2018-10-19T02:44:29.891Z,99.99
2018-10-19T02:45:29.880Z,99.99
2018-10-19T02:46:29.868Z,99.96
2018-10-19T02:47:29.856Z,99.96
2018-10-19T02:48:29.882Z,99.99
2018-10-19T02:49:29.840Z,99.99
2018-10-19T02:50:29.826Z,99.96
2018-10-19T02:51:29.815Z,99.96
2018-10-19T02:52:29.798Z,99.99
2018-10-19T02:53:29.793Z,99.96
2018-10-19T02:54:29.816Z,99.99
2018-10-19T02:55:29.768Z,99.99
2018-10-19T02:56:29.767Z,99.99
2018-10-19T02:57:29.760Z,99.99
2018-10-19T02:58:29.752Z,99.99
2018-10-19T02:59:29.740Z,99.99
2018-10-19T03:00:29.754Z,99.99
2018-10-19T03:01:29.714Z,99.99
2018-10-19T03:02:29.703Z,99.99
2018-10-19T03:03:29.679Z,99.86
2018-10-19T03:04:29.672Z,99.99
2018-10-19T03:05:29.687Z,99.86
2018-10-19T03:06:29.690Z,99.99
2018-10-19T03:07:29.666Z,99.99
2018-10-19T03:08:29.640Z,99.99
2018-10-19T03:09:29.630Z,99.99
2018-10-19T03:10:29.633Z,99.99
2018-10-19T03:11:29.679Z,99.99
2018-10-19T03:12:29.651Z,99.99
2018-10-19T03:13:29.604Z,99.99
2018-10-19T03:14:29.567Z,99.96
2018-10-19T03:15:29.557Z,99.99
2018-10-19T03:16:29.537Z,99.76
2018-10-19T03:17:29.526Z,99.99
2018-10-19T03:18:29.563Z,99.99
2018-10-19T03:19:29.545Z,99.99
2018-10-19T03:20:29.493Z,99.96
2018-10-19T03:21:29.483Z,99.99
2018-10-19T03:22:29.472Z,99.99
2018-10-19T03:23:29.463Z,99.99
2018-10-19T03:24:29.488Z,99.99
2018-10-19T03:25:29.487Z,99.99
2018-10-19T03:26:29.437Z,99.99
2018-10-19T03:27:29.415Z,99.99
2018-10-19T03:28:29.405Z,99.99
2018-10-19T03:29:29.392Z,99.99
2018-10-19T03:30:29.416Z,99.99
2018-10-19T03:31:29.394Z,99.99
2018-10-19T03:32:29.361Z,99.99
2018-10-19T03:33:29.347Z,99.91
2018-10-19T03:34:29.342Z,99.99
2018-10-19T03:35:29.326Z,99.99
2018-10-19T03:36:29.350Z,99.82
2018-10-19T03:37:29.304Z,99.99
2018-10-19T03:38:29.296Z,99.99
2018-10-19T03:39:29.290Z,99.99
2018-10-19T03:40:29.272Z,99.91
2018-10-19T03:41:29.262Z,99.20
2018-10-19T03:42:29.289Z,99.51
2018-10-19T03:43:29.239Z,99.30
2018-10-19T03:44:29.231Z,99.41
2018-10-19T03:45:29.235Z,99.10
2018-10-19T03:46:29.211Z,98.90
2018-10-19T03:47:29.196Z,99.20
2018-10-19T03:48:29.221Z,99.20
2018-10-19T03:49:29.173Z,98.99
2018-10-19T03:50:29.160Z,98.90
2018-10-19T03:51:29.172Z,98.99
2018-10-19T03:52:29.205Z,98.28
2018-10-19T03:53:29.127Z,98.49
2018-10-19T03:54:29.151Z,98.99
2018-10-19T03:55:29.104Z,98.90
2018-10-19T03:56:29.095Z,98.90
2018-10-19T03:57:29.082Z,99.20
2018-10-19T03:58:29.073Z,99.10
2018-10-19T03:59:29.062Z,99.10
2018-10-19T04:00:29.094Z,99.10
2018-10-19T04:01:29.059Z,98.99
2018-10-19T04:02:29.032Z,99.25
2018-10-19T04:03:29.064Z,99.20
2018-10-19T04:04:29.178Z,99.25
2018-10-19T04:05:29.002Z,99.04
2018-10-19T04:06:29.049Z,98.79
2018-10-19T04:07:28.974Z,99.25
2018-10-19T04:08:28.961Z,99.45
2018-10-19T04:09:28.954Z,99.76
2018-10-19T04:10:28.947Z,99.45
2018-10-19T04:11:28.936Z,99.25
2018-10-19T04:12:28.987Z,99.66
2018-10-19T04:13:28.939Z,99.86
2018-10-19T04:14:28.901Z,99.66
2018-10-19T04:15:28.892Z,99.66
2018-10-19T04:16:28.892Z,99.66
2018-10-19T04:17:28.864Z,99.66
2018-10-19T04:18:28.901Z,99.66
2018-10-19T04:19:28.856Z,99.66
2018-10-19T04:20:28.836Z,99.86
2018-10-19T04:21:28.849Z,99.66
2018-10-19T04:22:28.822Z,99.96
2018-10-19T04:23:28.805Z,99.45
2018-10-19T04:24:28.831Z,99.45
2018-10-19T04:25:28.787Z,99.96
2018-10-19T04:26:28.780Z,99.96
2018-10-19T04:27:28.803Z,99.66
2018-10-19T04:28:28.752Z,99.96
2018-10-19T04:29:28.770Z,99.99
2018-10-19T04:30:28.777Z,99.96
2018-10-19T04:31:28.716Z,99.96
2018-10-19T04:32:28.715Z,99.96
2018-10-19T04:33:28.689Z,99.99
2018-10-19T04:34:28.690Z,99.86
2018-10-19T04:35:28.669Z,99.76
2018-10-19T04:36:28.720Z,99.86
2018-10-19T04:37:28.659Z,99.99
2018-10-19T04:38:28.646Z,99.99
2018-10-19T04:39:28.629Z,99.99
2018-10-19T04:40:28.632Z,99.96
2018-10-19T04:41:28.628Z,99.96
2018-10-19T04:42:28.742Z,99.76
2018-10-19T04:43:28.581Z,99.66
2018-10-19T04:44:28.568Z,99.04
2018-10-19T04:45:28.650Z,99.04
2018-10-19T04:46:28.551Z,99.45
2018-10-19T04:47:28.571Z,99.45
2018-10-19T04:48:28.567Z,99.25
2018-10-19T04:49:28.517Z,99.41
2018-10-19T04:50:28.517Z,99.45
2018-10-19T04:51:28.530Z,99.30
2018-10-19T04:52:28.484Z,99.55
2018-10-19T04:53:28.516Z,99.30
2018-10-19T04:54:28.515Z,99.35
2018-10-19T04:55:28.452Z,99.76
2018-10-19T04:56:28.446Z,99.71
2018-10-19T04:57:28.431Z,99.61
2018-10-19T04:58:28.422Z,99.71
2018-10-19T04:59:28.409Z,99.71
2018-10-19T05:00:28.451Z,99.91
2018-10-19T05:01:28.388Z,99.71
2018-10-19T05:02:29.387Z,99.71
2018-10-19T05:03:28.361Z,99.71
2018-10-19T05:04:28.383Z,99.51
2018-10-19T05:05:28.504Z,99.82
2018-10-19T05:06:28.446Z,99.71
2018-10-19T05:07:28.338Z,99.30
2018-10-19T05:08:28.322Z,99.30
2018-10-19T05:09:28.300Z,99.82
2018-10-19T05:10:28.291Z,99.71
2018-10-19T05:11:28.275Z,99.82
2018-10-19T05:12:28.357Z,99.61
2018-10-19T05:13:28.264Z,99.71
2018-10-19T05:14:35.787Z,99.30
2018-10-19T05:15:35.777Z,99.10
2018-10-19T05:16:35.765Z,99.30
2018-10-19T05:17:36.993Z,99.20
2018-10-19T05:18:28.197Z,99.41
2018-10-19T05:19:28.189Z,99.41
2018-10-19T05:20:28.176Z,99.71
2018-10-19T05:21:28.165Z,99.71
2018-10-19T05:22:28.154Z,99.41
2018-10-19T05:23:28.180Z,99.61
2018-10-19T05:24:28.183Z,99.61
2018-10-19T05:25:28.173Z,99.71
2018-10-19T05:26:28.114Z,99.30
2018-10-19T05:27:28.102Z,99.30
2018-10-19T05:28:28.097Z,99.20
2018-10-19T05:29:28.124Z,99.41
2018-10-19T05:30:28.085Z,99.51
2018-10-19T05:31:28.061Z,99.41
2018-10-19T05:32:28.090Z,99.41
2018-10-19T05:33:28.052Z,99.61
2018-10-19T05:34:28.026Z,99.61
2018-10-19T05:35:28.065Z,99.20
2018-10-19T05:36:28.005Z,99.20
2018-10-19T05:37:28.003Z,99.99
2018-10-19T05:38:28.003Z,99.96
2018-10-19T05:39:27.980Z,99.91
2018-10-19T05:40:27.966Z,99.99
2018-10-19T05:41:28.003Z,99.91
2018-10-19T05:42:27.942Z,99.99
2018-10-19T05:43:27.986Z,99.99
2018-10-19T05:44:27.921Z,99.99
2018-10-19T05:45:27.920Z,99.99
2018-10-19T05:46:27.893Z,99.99
2018-10-19T05:47:27.932Z,99.99
2018-10-19T05:48:27.872Z,99.82
2018-10-19T05:49:27.862Z,99.99
2018-10-19T05:50:27.863Z,99.82
2018-10-19T05:51:27.842Z,99.99
2018-10-19T05:52:27.827Z,99.82
2018-10-19T05:53:27.862Z,99.82
2018-10-19T05:54:27.827Z,99.51
2018-10-19T05:55:27.796Z,99.41
2018-10-19T05:56:27.788Z,99.41
2018-10-19T05:57:27.776Z,99.30
2018-10-19T05:58:27.768Z,99.30
2018-10-19T05:59:27.823Z,99.61
2018-10-19T06:00:27.801Z,99.76
2018-10-19T06:01:27.740Z,99.35
2018-10-19T06:02:27.800Z,99.55
2018-10-19T06:03:27.724Z,99.55
2018-10-19T06:04:27.697Z,99.96
2018-10-19T06:05:27.769Z,99.99
2018-10-19T06:06:27.682Z,99.99
2018-10-19T06:07:27.670Z,99.99
2018-10-19T06:08:27.660Z,99.99
2018-10-19T06:09:27.649Z,99.76
2018-10-19T06:10:27.645Z,99.99
2018-10-19T06:11:27.664Z,99.99
2018-10-19T06:12:27.621Z,99.99
2018-10-19T06:13:27.641Z,99.99
2018-10-19T06:14:27.593Z,99.96
2018-10-19T06:15:27.592Z,99.61
2018-10-19T06:16:27.569Z,99.20
2018-10-19T06:17:27.605Z,99.41
2018-10-19T06:18:27.551Z,99.61
2018-10-19T06:19:27.537Z,99.30
2018-10-19T06:20:27.525Z,98.79
2018-10-19T06:21:27.606Z,98.90
2018-10-19T06:22:27.513Z,99.20
2018-10-19T06:23:27.567Z,99.05
2018-10-19T06:24:27.477Z,98.38
2018-10-19T06:25:27.469Z,98.58
2018-10-19T06:26:27.612Z,98.90
2018-10-19T06:27:27.472Z,98.79
2018-10-19T06:28:27.448Z,98.58
2018-10-19T06:29:27.466Z,98.58
2018-10-19T06:30:27.456Z,98.74
2018-10-19T06:31:27.407Z,99.05
2018-10-19T06:32:27.397Z,98.65
2018-10-19T06:33:27.399Z,98.54
2018-10-19T06:34:27.376Z,98.74
2018-10-19T06:35:27.401Z,98.44
2018-10-19T06:36:27.360Z,98.33
2018-10-19T06:37:27.338Z,97.82
2018-10-19T06:38:27.365Z,98.33
2018-10-19T06:39:27.330Z,98.03
2018-10-19T06:40:27.311Z,97.57
2018-10-19T06:41:27.352Z,97.82
2018-10-19T06:42:27.289Z,97.31
2018-10-19T06:43:27.275Z,97.88
2018-10-19T06:44:27.265Z,97.31
2018-10-19T06:45:27.271Z,97.27
2018-10-19T06:46:27.263Z,97.37
2018-10-19T06:47:27.295Z,97.27
2018-10-19T06:48:27.227Z,97.16
2018-10-19T06:49:27.216Z,96.96
2018-10-19T06:50:27.195Z,96.86
2018-10-19T06:51:27.210Z,96.96
2018-10-19T06:52:27.180Z,96.92
2018-10-19T06:53:27.228Z,96.96
2018-10-19T06:54:27.160Z,96.51
2018-10-19T06:55:27.149Z,96.71
2018-10-19T06:56:27.154Z,96.51
2018-10-19T06:57:27.124Z,96.41
2018-10-19T06:58:27.109Z,96.51
2018-10-19T06:59:27.232Z,96.10
2018-10-19T07:00:27.098Z,96.46
2018-10-19T07:01:27.102Z,95.69
2018-10-19T07:02:27.084Z,95.85
2018-10-19T07:03:27.060Z,95.75
2018-10-19T07:04:27.051Z,95.34
2018-10-19T07:05:27.101Z,95.13
2018-10-19T07:06:27.027Z,95.34
2018-10-19T07:07:27.033Z,95.09
2018-10-19T07:08:27.083Z,94.98
2018-10-19T07:09:26.992Z,94.89
2018-10-19T07:10:26.981Z,94.37
2018-10-19T07:11:27.037Z,94.48
2018-10-19T07:12:26.960Z,93.96
2018-10-19T07:13:26.951Z,94.27
2018-10-19T07:14:26.956Z,93.55
2018-10-19T07:15:26.927Z,93.45
2018-10-19T07:16:26.915Z,94.17
2018-10-19T07:17:26.975Z,93.96
2018-10-19T07:18:26.893Z,93.80
2018-10-19T07:19:26.897Z,94.48
2018-10-19T07:20:26.901Z,93.91
2018-10-19T07:21:26.861Z,93.96
2018-10-19T07:22:26.852Z,93.70
2018-10-19T07:23:26.888Z,93.96
2018-10-19T07:24:26.845Z,94.07
2018-10-19T07:25:26.822Z,94.27
2018-10-19T07:26:26.808Z,93.55
2018-10-19T07:27:26.818Z,93.66
2018-10-19T07:28:26.791Z,93.55
2018-10-19T07:29:26.857Z,93.55
2018-10-19T07:30:26.767Z,93.45
2018-10-19T07:31:26.751Z,93.15
2018-10-19T07:32:26.744Z,93.15
2018-10-19T07:33:26.738Z,93.25
2018-10-19T07:34:26.717Z,93.25
2018-10-19T07:35:26.749Z,93.10
2018-10-19T07:36:26.785Z,93.05
2018-10-19T07:37:26.693Z,93.21
2018-10-19T07:38:26.680Z,92.80
2018-10-19T07:39:26.684Z,92.69
2018-10-19T07:40:26.654Z,92.49
2018-10-19T07:41:26.678Z,92.19
2018-10-19T07:42:26.793Z,92.08
2018-10-19T07:43:26.621Z,92.39
2018-10-19T07:44:26.616Z,91.88
2018-10-19T07:45:26.618Z,92.29
2018-10-19T07:46:26.587Z,92.29
2018-10-19T07:47:26.686Z,91.88
2018-10-19T07:48:26.579Z,91.53
2018-10-19T07:49:26.560Z,91.94
2018-10-19T07:50:26.540Z,92.45
2018-10-19T07:51:26.541Z,92.14
2018-10-19T07:52:26.532Z,91.67
2018-10-19T07:53:26.547Z,91.22
2018-10-19T07:54:26.522Z,91.98
2018-10-19T07:55:26.496Z,92.24
2018-10-19T07:56:26.476Z,91.63
2018-10-19T07:57:26.489Z,91.94
2018-10-19T07:58:26.451Z,91.63
2018-10-19T07:59:26.525Z,91.12
2018-10-19T08:00:26.463Z,90.77
2018-10-19T08:01:26.427Z,90.77
2018-10-19T08:02:26.413Z,90.81
2018-10-19T08:03:26.396Z,91.12
2018-10-19T08:04:26.382Z,90.98
2018-10-19T08:05:26.432Z,91.18
2018-10-19T08:06:26.362Z,90.98
2018-10-19T08:07:26.356Z,91.49
2018-10-19T08:08:26.338Z,91.08
2018-10-19T08:09:26.327Z,91.18
2018-10-19T08:10:26.316Z,90.67
2018-10-19T08:11:26.352Z,90.26
2018-10-19T08:12:26.310Z,90.26
2018-10-19T08:13:26.286Z,90.57
2018-10-19T08:14:26.277Z,90.88
2018-10-19T08:15:26.259Z,90.06
2018-10-19T08:16:26.249Z,90.57
2018-10-19T08:17:26.272Z,90.83
2018-10-19T08:18:26.238Z,90.63
2018-10-19T08:19:26.217Z,90.22
2018-10-19T08:20:26.212Z,90.08
2018-10-19T08:21:26.352Z,89.16
2018-10-19T08:22:26.183Z,88.75
2018-10-19T08:23:26.211Z,88.75
2018-10-19T08:24:26.183Z,89.16
2018-10-19T08:25:26.171Z,88.81
2018-10-19T08:26:26.139Z,88.81
2018-10-19T08:27:26.272Z,87.18
2018-10-19T08:28:26.117Z,87.38
2018-10-19T08:29:26.145Z,87.08
2018-10-19T08:30:26.096Z,87.08
2018-10-19T08:31:26.086Z,86.77
2018-10-19T08:32:26.108Z,86.77
2018-10-19T08:33:26.066Z,87.55
2018-10-19T08:34:26.050Z,87.65
2018-10-19T08:35:26.083Z,87.65
2018-10-19T08:36:26.030Z,86.83
2018-10-19T08:37:26.026Z,87.04
2018-10-19T08:38:26.029Z,87.35
2018-10-19T08:39:26.006Z,86.43
2018-10-19T08:40:25.988Z,85.82
2018-10-19T08:41:26.147Z,85.51
2018-10-19T08:42:25.968Z,85.78
2018-10-19T08:43:25.958Z,85.68
2018-10-19T08:44:25.959Z,85.68
2018-10-19T08:45:25.937Z,86.19
2018-10-19T08:46:25.923Z,85.47
2018-10-19T08:47:25.954Z,85.78
2018-10-19T08:48:25.899Z,85.58
2018-10-19T08:49:25.921Z,85.37
2018-10-19T08:50:25.886Z,85.17
2018-10-19T08:51:25.865Z,85.27
2018-10-19T08:52:25.858Z,84.35
2018-10-19T08:53:25.922Z,84.45
2018-10-19T08:54:25.840Z,84.76
2018-10-19T08:55:25.875Z,85.03
2018-10-19T08:56:25.822Z,84.52
2018-10-19T08:57:25.801Z,84.42
2018-10-19T08:58:25.862Z,84.11
2018-10-19T08:59:25.818Z,83.81
2018-10-19T09:00:25.777Z,84.31
2018-10-19T09:01:25.761Z,84.48
2018-10-19T09:02:25.774Z,84.31
2018-10-19T09:03:25.783Z,84.58
2018-10-19T09:04:25.724Z,83.15
2018-10-19T09:05:25.750Z,83.12
2018-10-19T09:06:25.702Z,83.01
2018-10-19T09:07:25.691Z,83.15
2018-10-19T09:08:25.894Z,83.06
2018-10-19T09:09:25.863Z,83.01
2018-10-19T09:10:25.723Z,82.71
2018-10-19T09:11:25.866Z,82.31
2018-10-19T09:12:25.746Z,82.20
2018-10-19T09:13:25.678Z,82.71
2018-10-19T09:14:25.682Z,82.51
2018-10-19T09:15:25.659Z,82.92
2018-10-19T09:16:25.690Z,81.93
2018-10-19T09:17:25.660Z,82.31
2018-10-19T09:18:25.637Z,82.04
2018-10-19T09:19:25.670Z,81.84
2018-10-19T09:20:25.586Z,83.15
2018-10-19T09:21:25.562Z,82.54
2018-10-19T09:22:25.658Z,82.89
2018-10-19T09:23:25.675Z,83.60
2018-10-19T09:24:25.647Z,82.89
2018-10-19T09:25:25.578Z,83.29
2018-10-19T09:26:25.570Z,83.40
2018-10-19T09:27:25.514Z,82.65
2018-10-19T09:28:25.496Z,82.54
2018-10-19T09:29:25.625Z,82.40
2018-10-19T09:30:25.526Z,82.06
2018-10-19T09:31:25.462Z,80.40
2018-10-19T09:32:25.441Z,80.40
2018-10-19T09:33:25.531Z,79.28
2018-10-19T09:34:25.471Z,78.78
2018-10-19T09:35:25.510Z,80.71
2018-10-19T09:36:25.710Z,79.83
2018-10-19T09:37:25.366Z,80.74
2018-10-19T09:38:25.352Z,79.32
2018-10-19T09:39:25.378Z,79.25
2018-10-19T09:40:25.371Z,80.58
2018-10-19T09:41:25.421Z,79.77
2018-10-19T09:42:25.308Z,80.47
2018-10-19T09:43:25.298Z,80.37
2018-10-19T09:44:25.287Z,80.37
2018-10-19T09:45:25.276Z,80.37
2018-10-19T09:46:25.285Z,80.84
2018-10-19T09:47:25.328Z,80.24
2018-10-19T09:48:25.248Z,79.16
2018-10-19T09:49:25.233Z,79.97
2018-10-19T09:50:25.222Z,79.36
2018-10-19T09:51:25.211Z,79.86
2018-10-19T09:52:25.243Z,80.88
2018-10-19T09:53:25.226Z,79.46
2018-10-19T09:54:25.183Z,79.66
2018-10-19T09:55:25.168Z,80.44
2018-10-19T09:56:25.160Z,78.71
2018-10-19T09:57:25.145Z,79.12
2018-10-19T09:58:25.165Z,78.88
2018-10-19T09:59:25.169Z,79.02
2018-10-19T10:00:25.119Z,78.30
2018-10-19T10:01:25.104Z,78.88
2018-10-19T10:02:25.092Z,78.27
2018-10-19T10:03:25.080Z,78.06
2018-10-19T10:04:25.093Z,77.36
2018-10-19T10:05:25.204Z,76.91
2018-10-19T10:06:25.055Z,76.81
2018-10-19T10:07:25.048Z,76.81
2018-10-19T10:08:25.033Z,76.20
2018-10-19T10:09:25.024Z,76.71
2018-10-19T10:10:25.058Z,77.22
2018-10-19T10:11:25.047Z,75.70
2018-10-19T10:12:24.992Z,76.31
2018-10-19T10:13:24.972Z,76.40
2018-10-19T10:14:24.969Z,75.70
2018-10-19T10:15:25.040Z,76.61
2018-10-19T10:16:24.941Z,75.59
2018-10-19T10:17:25.004Z,75.56
2018-10-19T10:18:24.924Z,75.56
2018-10-19T10:19:24.906Z,75.82
2018-10-19T10:20:24.897Z,74.81
2018-10-19T10:21:24.886Z,73.80
2018-10-19T10:22:24.877Z,73.16
2018-10-19T10:23:24.908Z,72.85
2018-10-19T10:24:24.873Z,73.25
2018-10-19T10:25:24.910Z,73.66
2018-10-19T10:26:24.837Z,73.36
2018-10-19T10:27:24.817Z,73.02
2018-10-19T10:28:24.810Z,71.94
2018-10-19T10:29:24.846Z,72.45
2018-10-19T10:30:24.789Z,72.41
2018-10-19T10:31:24.777Z,71.20
2018-10-19T10:32:24.883Z,71.60
2018-10-19T10:33:24.755Z,71.57
2018-10-19T10:34:24.748Z,71.16
2018-10-19T10:35:24.768Z,71.26
2018-10-19T10:36:24.726Z,71.57
2018-10-19T10:37:24.715Z,70.12
2018-10-19T10:38:24.700Z,70.73
2018-10-19T10:39:24.687Z,71.23
2018-10-19T10:40:24.678Z,71.06
2018-10-19T10:41:24.704Z,70.02
2018-10-19T10:42:24.668Z,70.32
2018-10-19T10:43:24.647Z,70.12
2018-10-19T10:44:24.637Z,70.73
2018-10-19T10:45:24.623Z,70.22
2018-10-19T10:46:24.611Z,70.76
2018-10-19T10:47:24.641Z,70.52
2018-10-19T10:48:24.593Z,70.83
2018-10-19T10:49:24.606Z,70.02
2018-10-19T10:50:24.570Z,70.83
2018-10-19T10:51:24.558Z,70.42
2018-10-19T10:52:24.547Z,69.81
2018-10-19T10:53:24.571Z,70.32
2018-10-19T10:54:24.521Z,69.85
2018-10-19T10:55:24.530Z,70.22
2018-10-19T10:56:24.524Z,71.37
2018-10-19T10:57:24.488Z,70.76
2018-10-19T10:58:24.479Z,71.67
2018-10-19T10:59:24.507Z,71.97
2018-10-19T11:00:24.457Z,71.47
2018-10-19T11:01:24.462Z,71.06
2018-10-19T11:02:24.435Z,71.67
2018-10-19T11:03:24.430Z,71.77
2018-10-19T11:04:24.416Z,71.26
2018-10-19T11:05:24.443Z,70.12
2018-10-19T11:06:24.389Z,70.12
2018-10-19T11:07:24.584Z,70.15
2018-10-19T11:08:24.367Z,70.86
2018-10-19T11:09:24.362Z,70.56
2018-10-19T11:10:24.347Z,70.73
2018-10-19T11:11:24.368Z,70.65
2018-10-19T11:12:24.326Z,71.06
2018-10-19T11:13:24.342Z,70.56
2018-10-19T11:14:24.346Z,70.15
2018-10-19T11:15:24.294Z,70.76
2018-10-19T11:16:24.281Z,69.24
2018-10-19T11:17:24.315Z,68.90
2018-10-19T11:18:24.260Z,69.41
2018-10-19T11:19:24.243Z,68.19
2018-10-19T11:20:24.233Z,69.24
2018-10-19T11:21:24.222Z,69.31
2018-10-19T11:22:24.235Z,69.01
2018-10-19T11:23:24.247Z,68.94
2018-10-19T11:24:24.200Z,68.77
2018-10-19T11:25:24.179Z,69.34
2018-10-19T11:26:24.174Z,70.25
2018-10-19T11:27:24.179Z,70.25
2018-10-19T11:28:24.178Z,69.95
2018-10-19T11:29:24.223Z,68.33
2018-10-19T11:30:24.133Z,69.44
2018-10-19T11:31:24.118Z,69.34
2018-10-19T11:32:24.102Z,69.54
2018-10-19T11:33:24.092Z,68.84
2018-10-19T11:34:24.166Z,69.24
2018-10-19T11:35:24.108Z,69.34
2018-10-19T11:36:24.073Z,68.94
2018-10-19T11:37:24.122Z,69.74
2018-10-19T11:38:24.037Z,69.34
2018-10-19T11:39:24.032Z,69.41
2018-10-19T11:40:24.021Z,68.33
2018-10-19T11:41:24.041Z,68.23
2018-10-19T11:42:24.013Z,68.63
2018-10-19T11:43:23.977Z,70.25
2018-10-19T11:44:23.972Z,69.41
2018-10-19T11:45:23.957Z,69.41
2018-10-19T11:46:23.954Z,68.40
2018-10-19T11:47:23.986Z,69.41
2018-10-19T11:48:23.947Z,68.70
2018-10-19T11:49:23.918Z,68.40
2018-10-19T11:50:23.911Z,68.30
2018-10-19T11:51:23.891Z,68.10
2018-10-19T11:52:23.880Z,68.37
2018-10-19T11:53:23.910Z,68.16
2018-10-19T11:54:23.884Z,69.07
2018-10-19T11:55:23.921Z,68.06
2018-10-19T11:56:23.834Z,68.37
2018-10-19T11:57:23.832Z,67.86
2018-10-19T11:58:23.812Z,67.76
2018-10-19T11:59:23.841Z,67.52
2018-10-19T12:00:23.789Z,67.52
2018-10-19T12:01:23.798Z,67.49
2018-10-19T12:02:23.771Z,67.19
2018-10-19T12:03:23.796Z,67.06
2018-10-19T12:04:23.760Z,66.55
2018-10-19T12:05:23.822Z,65.28
2018-10-19T12:06:23.730Z,65.58
2018-10-19T12:07:23.720Z,64.98
2018-10-19T12:08:23.710Z,63.23
2018-10-19T12:09:23.692Z,63.43
2018-10-19T12:10:23.689Z,63.07
2018-10-19T12:11:23.811Z,61.16
2018-10-19T12:12:23.663Z,60.83
2018-10-19T12:13:23.661Z,60.09
2018-10-19T12:14:23.642Z,58.95
2018-10-19T12:15:23.634Z,59.00
2018-10-19T12:16:23.860Z,58.07
2018-10-19T12:17:23.687Z,58.00
2018-10-19T12:18:23.626Z,57.34
2018-10-19T12:19:23.584Z,57.14
2018-10-19T12:20:23.588Z,56.58
2018-10-19T12:21:23.598Z,55.25
2018-10-19T12:22:23.556Z,54.32
2018-10-19T12:23:23.591Z,53.39
2018-10-19T12:24:23.530Z,53.27
2018-10-19T12:25:23.533Z,52.47
2018-10-19T12:26:23.510Z,52.34
2018-10-19T12:27:23.499Z,52.24
2018-10-19T12:28:23.508Z,51.94
2018-10-19T12:29:23.539Z,51.62
2018-10-19T12:30:23.470Z,52.44
2018-10-19T12:31:23.459Z,51.94
2018-10-19T12:32:23.470Z,52.47
2018-10-19T12:33:23.444Z,52.67
2018-10-19T12:34:23.428Z,52.42
2018-10-19T12:35:23.534Z,51.09
2018-10-19T12:36:23.418Z,50.27
2018-10-19T12:37:23.422Z,50.42
2018-10-19T12:38:23.381Z,51.12
2018-10-19T12:39:23.381Z,51.82
2018-10-19T12:40:23.373Z,52.42
2018-10-19T12:41:23.422Z,51.50
2018-10-19T12:42:23.359Z,50.70
2018-10-19T12:43:23.328Z,49.47
2018-10-19T12:44:23.322Z,49.47
2018-10-19T12:45:23.323Z,50.49
2018-10-19T12:46:23.302Z,52.44
2018-10-19T12:47:23.372Z,50.39
2018-10-19T12:48:23.287Z,49.47
2018-10-19T12:49:23.264Z,50.15
2018-10-19T12:50:23.254Z,49.65
2018-10-19T12:51:23.243Z,49.95
2018-10-19T12:52:23.231Z,49.00